sensor_id;sensor_type;location;lat;lon;timestamp;pressure;altitude;pressure_sealevel;temperature;humidity
72587;BME280;60621;49.576;11.024;2022-12-08T00:00:39;97882.28;;;4.04;77.05
72587;BME280;60621;49.576;11.024;2022-12-08T00:01:41;97885.97;;;4.03;76.64
72587;BME280;60621;49.576;11.024;2022-12-08T00:02:42;97884.75;;;4.00;77.00
72587;BME280;60621;49.576;11.024;2022-12-08T00:03:45;97882.91;;;4.01;77.10
72587;BME280;60621;49.576;11.024;2022-12-08T00:04:47;97884.00;;;4.00;77.09
72587;BME280;60621;49.576;11.024;2022-12-08T00:06:14;97878.13;;;4.03;76.88
72587;BME280;60621;49.576;11.024;2022-12-08T00:07:38;97878.84;;;3.91;76.46
72587;BME280;60621;49.576;11.024;2022-12-08T00:08:58;97876.25;;;3.91;76.75
72587;BME280;60621;49.576;11.024;2022-12-08T00:10:18;97877.75;;;3.92;76.86
72587;BME280;60621;49.576;11.024;2022-12-08T00:11:39;97878.66;;;3.96;76.73
72587;BME280;60621;49.576;11.024;2022-12-08T00:12:41;97874.81;;;3.94;77.02
72587;BME280;60621;49.576;11.024;2022-12-08T00:13:42;97876.38;;;3.95;76.17
72587;BME280;60621;49.576;11.024;2022-12-08T00:14:46;97876.09;;;3.88;76.56
72587;BME280;60621;49.576;11.024;2022-12-08T00:15:50;97872.03;;;3.78;76.24
72587;BME280;60621;49.576;11.024;2022-12-08T00:16:52;97872.03;;;3.78;77.22
72587;BME280;60621;49.576;11.024;2022-12-08T00:17:54;97870.31;;;3.82;77.20
72587;BME280;60621;49.576;11.024;2022-12-08T00:18:56;97875.97;;;3.84;76.88
72587;BME280;60621;49.576;11.024;2022-12-08T00:19:57;97870.66;;;3.80;76.47
72587;BME280;60621;49.576;11.024;2022-12-08T00:20:59;97869.00;;;3.76;76.42
72587;BME280;60621;49.576;11.024;2022-12-08T00:22:01;97873.47;;;3.75;76.93
72587;BME280;60621;49.576;11.024;2022-12-08T00:23:03;97864.09;;;3.74;76.96
72587;BME280;60621;49.576;11.024;2022-12-08T00:24:05;97866.06;;;3.77;76.93
72587;BME280;60621;49.576;11.024;2022-12-08T00:25:07;97865.44;;;3.80;77.07
72587;BME280;60621;49.576;11.024;2022-12-08T00:26:09;97865.88;;;3.82;77.15
72587;BME280;60621;49.576;11.024;2022-12-08T00:27:11;97859.13;;;3.81;76.35
72587;BME280;60621;49.576;11.024;2022-12-08T00:28:14;97861.75;;;3.81;76.44
72587;BME280;60621;49.576;11.024;2022-12-08T00:29:16;97865.88;;;3.82;76.72
72587;BME280;60621;49.576;11.024;2022-12-08T00:30:18;97860.22;;;3.80;76.72
72587;BME280;60621;49.576;11.024;2022-12-08T00:31:19;97864.22;;;3.78;77.10
72587;BME280;60621;49.576;11.024;2022-12-08T00:32:21;97859.75;;;3.78;76.46
72587;BME280;60621;49.576;11.024;2022-12-08T00:33:23;97860.53;;;3.79;76.52
72587;BME280;60621;49.576;11.024;2022-12-08T00:34:24;97864.97;;;3.78;76.09
72587;BME280;60621;49.576;11.024;2022-12-08T00:35:26;97863.13;;;3.79;77.05
72587;BME280;60621;49.576;11.024;2022-12-08T00:36:28;97861.38;;;3.71;76.67
72587;BME280;60621;49.576;11.024;2022-12-08T00:37:29;97869.81;;;3.68;77.22
72587;BME280;60621;49.576;11.024;2022-12-08T00:38:31;97863.97;;;3.71;76.98
72587;BME280;60621;49.576;11.024;2022-12-08T00:39:32;97864.63;;;3.68;76.54
72587;BME280;60621;49.576;11.024;2022-12-08T00:40:34;97865.03;;;3.70;77.02
72587;BME280;60621;49.576;11.024;2022-12-08T00:41:35;97859.53;;;3.71;76.65
72587;BME280;60621;49.576;11.024;2022-12-08T00:42:55;97860.28;;;3.72;76.35
72587;BME280;60621;49.576;11.024;2022-12-08T00:43:57;97859.06;;;3.69;76.49
72587;BME280;60621;49.576;11.024;2022-12-08T00:44:58;97856.34;;;3.66;76.89
72587;BME280;60621;49.576;11.024;2022-12-08T00:46:00;97862.44;;;3.70;76.90
72587;BME280;60621;49.576;11.024;2022-12-08T00:47:01;97858.31;;;3.69;75.93
72587;BME280;60621;49.576;11.024;2022-12-08T00:48:03;97858.63;;;3.67;76.72
72587;BME280;60621;49.576;11.024;2022-12-08T00:49:05;97854.03;;;3.64;76.28
72587;BME280;60621;49.576;11.024;2022-12-08T00:50:08;97857.75;;;3.63;77.12
72587;BME280;60621;49.576;11.024;2022-12-08T00:51:09;97854.50;;;3.66;76.69
72587;BME280;60621;49.576;11.024;2022-12-08T00:52:11;97857.13;;;3.66;76.48
72587;BME280;60621;49.576;11.024;2022-12-08T00:53:13;97861.25;;;3.67;76.92
72587;BME280;60621;49.576;11.024;2022-12-08T00:54:15;97855.25;;;3.67;76.72
72587;BME280;60621;49.576;11.024;2022-12-08T00:55:16;97864.28;;;3.69;76.55
72587;BME280;60621;49.576;11.024;2022-12-08T00:56:18;97866.88;;;3.69;76.79
72587;BME280;60621;49.576;11.024;2022-12-08T00:57:19;97858.81;;;3.62;76.47
72587;BME280;60621;49.576;11.024;2022-12-08T00:58:21;97861.44;;;3.62;76.57
72587;BME280;60621;49.576;11.024;2022-12-08T00:59:22;97860.34;;;3.63;76.82
72587;BME280;60621;49.576;11.024;2022-12-08T01:00:24;97861.09;;;3.64;76.60
72587;BME280;60621;49.576;11.024;2022-12-08T01:01:26;97857.41;;;3.65;77.07
72587;BME280;60621;49.576;11.024;2022-12-08T01:02:28;97854.03;;;3.64;76.63
72587;BME280;60621;49.576;11.024;2022-12-08T01:03:30;97856.09;;;3.58;76.45
72587;BME280;60621;49.576;11.024;2022-12-08T01:04:31;97856.84;;;3.59;76.55
72587;BME280;60621;49.576;11.024;2022-12-08T01:05:32;97862.06;;;3.59;76.89
72587;BME280;60621;49.576;11.024;2022-12-08T01:06:35;97853.16;;;3.60;77.15
72587;BME280;60621;49.576;11.024;2022-12-08T01:07:36;97856.50;;;3.60;77.18
72587;BME280;60621;49.576;11.024;2022-12-08T01:08:39;97858.06;;;3.62;76.74
72587;BME280;60621;49.576;11.024;2022-12-08T01:09:41;97859.13;;;3.60;76.75
72587;BME280;60621;49.576;11.024;2022-12-08T01:10:42;97860.97;;;3.60;76.79
72587;BME280;60621;49.576;11.024;2022-12-08T01:11:44;97853.34;;;3.55;76.77
72587;BME280;60621;49.576;11.024;2022-12-08T01:12:46;97857.38;;;3.52;76.74
72587;BME280;60621;49.576;11.024;2022-12-08T01:13:47;97855.94;;;3.55;76.76
72587;BME280;60621;49.576;11.024;2022-12-08T01:14:49;97852.44;;;3.51;76.35
72587;BME280;60621;49.576;11.024;2022-12-08T01:15:50;97859.88;;;3.40;77.60
72587;BME280;60621;49.576;11.024;2022-12-08T01:16:52;97858.81;;;3.41;77.22
72587;BME280;60621;49.576;11.024;2022-12-08T01:17:54;97856.34;;;3.45;76.91
72587;BME280;60621;49.576;11.024;2022-12-08T01:18:57;97856.78;;;3.47;77.44
72587;BME280;60621;49.576;11.024;2022-12-08T01:19:58;97849.13;;;3.42;76.73
72587;BME280;60621;49.576;11.024;2022-12-08T01:21:04;97855.63;;;3.36;77.50
72587;BME280;60621;49.576;11.024;2022-12-08T01:22:06;97855.34;;;3.37;77.31
72587;BME280;60621;49.576;11.024;2022-12-08T01:23:07;97854.53;;;3.37;77.55
72587;BME280;60621;49.576;11.024;2022-12-08T01:24:13;97854.69;;;3.40;77.57
72587;BME280;60621;49.576;11.024;2022-12-08T01:25:15;97857.94;;;3.37;76.95
72587;BME280;60621;49.576;11.024;2022-12-08T01:26:18;97860.66;;;3.41;77.76
72587;BME280;60621;49.576;11.024;2022-12-08T01:27:19;97854.34;;;3.42;76.72
72587;BME280;60621;49.576;11.024;2022-12-08T01:28:21;97856.19;;;3.41;76.78
72587;BME280;60621;49.576;11.024;2022-12-08T01:29:22;97859.75;;;3.37;77.02
72587;BME280;60621;49.576;11.024;2022-12-08T01:30:24;97855.00;;;3.39;77.55
72587;BME280;60621;49.576;11.024;2022-12-08T01:31:25;97858.03;;;3.41;76.55
72587;BME280;60621;49.576;11.024;2022-12-08T01:32:28;97859.56;;;3.42;76.14
72587;BME280;60621;49.576;11.024;2022-12-08T01:33:30;97859.88;;;3.40;76.62
72587;BME280;60621;49.576;11.024;2022-12-08T01:34:32;97863.59;;;3.39;76.65
72587;BME280;60621;49.576;11.024;2022-12-08T01:35:33;97862.38;;;3.37;76.83
72587;BME280;60621;49.576;11.024;2022-12-08T01:36:35;97867.16;;;3.34;76.83
72587;BME280;60621;49.576;11.024;2022-12-08T01:37:37;97861.50;;;3.32;76.68
72587;BME280;60621;49.576;11.024;2022-12-08T01:38:38;97859.00;;;3.36;76.54
72587;BME280;60621;49.576;11.024;2022-12-08T01:39:40;97863.31;;;3.32;76.69
72587;BME280;60621;49.576;11.024;2022-12-08T01:40:42;97855.19;;;3.33;76.70
72587;BME280;60621;49.576;11.024;2022-12-08T01:41:44;97848.69;;;3.40;77.18
72587;BME280;60621;49.576;11.024;2022-12-08T01:42:48;97862.63;;;3.44;76.71
72587;BME280;60621;49.576;11.024;2022-12-08T01:45:22;97858.63;;;3.46;76.10
72587;BME280;60621;49.576;11.024;2022-12-08T01:46:25;97854.34;;;3.42;76.19
72587;BME280;60621;49.576;11.024;2022-12-08T01:47:48;97854.06;;;3.43;75.83
72587;BME280;60621;49.576;11.024;2022-12-08T01:48:57;97856.66;;;3.43;76.25
72587;BME280;60621;49.576;11.024;2022-12-08T01:50:02;97854.34;;;3.42;76.23
72587;BME280;60621;49.576;11.024;2022-12-08T01:51:04;97852.53;;;3.42;76.23
72587;BME280;60621;49.576;11.024;2022-12-08T01:52:22;97846.41;;;3.38;76.30
72587;BME280;60621;49.576;11.024;2022-12-08T01:53:29;97858.81;;;3.41;76.62
72587;BME280;60621;49.576;11.024;2022-12-08T01:54:37;97843.63;;;3.43;76.81
72587;BME280;60621;49.576;11.024;2022-12-08T01:55:43;97848.50;;;3.45;76.21
72587;BME280;60621;49.576;11.024;2022-12-08T01:56:52;97849.00;;;3.17;77.31
72587;BME280;60621;49.576;11.024;2022-12-08T01:58:03;97846.84;;;3.19;77.23
72587;BME280;60621;49.576;11.024;2022-12-08T01:59:06;97839.94;;;3.23;76.87
72587;BME280;60621;49.576;11.024;2022-12-08T02:00:10;97841.88;;;3.26;76.25
72587;BME280;60621;49.576;11.024;2022-12-08T02:01:13;97844.69;;;3.21;77.12
72587;BME280;60621;49.576;11.024;2022-12-08T02:02:14;97848.03;;;3.22;76.42
72587;BME280;60621;49.576;11.024;2022-12-08T02:03:56;97840.38;;;3.25;76.57
72587;BME280;60621;49.576;11.024;2022-12-08T02:04:59;97841.22;;;3.08;76.83
72587;BME280;60621;49.576;11.024;2022-12-08T02:06:01;97838.47;;;3.14;77.53
72587;BME280;60621;49.576;11.024;2022-12-08T02:07:05;97845.03;;;3.11;77.04
72587;BME280;60621;49.576;11.024;2022-12-08T02:08:11;97838.88;;;3.16;77.56
72587;BME280;60621;49.576;11.024;2022-12-08T02:09:13;97839.97;;;3.15;76.82
72587;BME280;60621;49.576;11.024;2022-12-08T02:10:17;97834.25;;;3.21;76.93
72587;BME280;60621;49.576;11.024;2022-12-08T02:11:20;97828.41;;;3.24;77.19
72587;BME280;60621;49.576;11.024;2022-12-08T02:12:21;97824.72;;;3.25;76.36
72587;BME280;60621;49.576;11.024;2022-12-08T02:13:24;97833.63;;;3.24;76.32
72587;BME280;60621;49.576;11.024;2022-12-08T02:14:25;97827.09;;;3.18;76.21
72587;BME280;60621;49.576;11.024;2022-12-08T02:15:38;97827.84;;;3.19;76.61
72587;BME280;60621;49.576;11.024;2022-12-08T02:16:50;97831.31;;;3.23;76.28
72587;BME280;60621;49.576;11.024;2022-12-08T02:20:47;97815.56;;;3.19;76.72
72587;BME280;60621;49.576;11.024;2022-12-08T02:21:59;97816.56;;;3.06;76.13
72587;BME280;60621;49.576;11.024;2022-12-08T02:23:15;97819.03;;;3.02;77.32
72587;BME280;60621;49.576;11.024;2022-12-08T02:24:38;97809.50;;;3.06;76.64
72587;BME280;60621;49.576;11.024;2022-12-08T02:25:44;97813.34;;;3.09;76.70
72587;BME280;60621;49.576;11.024;2022-12-08T02:27:14;97815.16;;;3.08;76.98
72587;BME280;60621;49.576;11.024;2022-12-08T02:34:56;97806.28;;;3.10;76.01
72587;BME280;60621;49.576;11.024;2022-12-08T02:36:13;97809.88;;;2.96;76.88
72587;BME280;60621;49.576;11.024;2022-12-08T02:37:39;97799.00;;;2.94;76.49
72587;BME280;60621;49.576;11.024;2022-12-08T02:38:57;97797.47;;;2.93;76.81
72587;BME280;60621;49.576;11.024;2022-12-08T02:40:06;97803.25;;;2.99;77.13
72587;BME280;60621;49.576;11.024;2022-12-08T02:42:56;97795.16;;;3.00;76.17
72587;BME280;60621;49.576;11.024;2022-12-08T02:44:04;97797.66;;;2.88;77.09
72587;BME280;60621;49.576;11.024;2022-12-08T02:46:21;97791.38;;;2.89;77.11
72587;BME280;60621;49.576;11.024;2022-12-08T02:47:25;97792.81;;;2.78;77.75
72587;BME280;60621;49.576;11.024;2022-12-08T02:48:29;97785.97;;;2.65;77.65
72587;BME280;60621;49.576;11.024;2022-12-08T02:49:32;97798.25;;;2.64;78.33
72587;BME280;60621;49.576;11.024;2022-12-08T02:50:34;97795.91;;;2.71;78.47
72587;BME280;60621;49.576;11.024;2022-12-08T02:51:35;97791.78;;;2.70;77.54
72587;BME280;60621;49.576;11.024;2022-12-08T02:52:42;97788.72;;;2.68;78.54
72587;BME280;60621;49.576;11.024;2022-12-08T02:53:44;97791.91;;;2.74;77.81
72587;BME280;60621;49.576;11.024;2022-12-08T02:54:52;97789.81;;;2.67;77.57
72587;BME280;60621;49.576;11.024;2022-12-08T03:00:07;97779.06;;;2.69;78.24
72587;BME280;60621;49.576;11.024;2022-12-08T03:02:03;97784.19;;;2.56;78.14
72587;BME280;60621;49.576;11.024;2022-12-08T03:03:28;97779.38;;;2.67;78.25
72587;BME280;60621;49.576;11.024;2022-12-08T03:04:37;97778.16;;;2.65;78.25
72587;BME280;60621;49.576;11.024;2022-12-08T03:05:51;97785.50;;;2.71;78.14
72587;BME280;60621;49.576;11.024;2022-12-08T03:06:58;97776.09;;;2.79;77.99
72587;BME280;60621;49.576;11.024;2022-12-08T03:08:19;97774.06;;;2.85;77.77
72587;BME280;60621;49.576;11.024;2022-12-08T03:09:33;97778.22;;;2.86;77.20
72587;BME280;60621;49.576;11.024;2022-12-08T03:12:09;97771.16;;;2.86;77.26
72587;BME280;60621;49.576;11.024;2022-12-08T03:13:16;97768.69;;;2.90;76.89
72587;BME280;60621;49.576;11.024;2022-12-08T03:14:21;97777.09;;;2.95;76.84
72587;BME280;60621;49.576;11.024;2022-12-08T03:15:23;97765.59;;;2.96;76.85
72587;BME280;60621;49.576;11.024;2022-12-08T03:16:29;97773.53;;;3.00;76.46
72587;BME280;60621;49.576;11.024;2022-12-08T03:17:30;97767.44;;;2.96;76.47
72587;BME280;60621;49.576;11.024;2022-12-08T03:18:36;97767.56;;;2.99;77.09
72587;BME280;60621;49.576;11.024;2022-12-08T03:19:41;97775.81;;;3.01;77.12
72587;BME280;60621;49.576;11.024;2022-12-08T03:20:45;97772.25;;;3.06;77.39
72587;BME280;60621;49.576;11.024;2022-12-08T03:21:51;97769.03;;;3.09;76.86
72587;BME280;60621;49.576;11.024;2022-12-08T03:22:55;97773.03;;;3.06;76.67
72587;BME280;60621;49.576;11.024;2022-12-08T03:24:01;97761.84;;;3.06;76.00
72587;BME280;60621;49.576;11.024;2022-12-08T03:25:05;97767.69;;;3.03;75.94
72587;BME280;60621;49.576;11.024;2022-12-08T03:26:11;97771.84;;;3.04;76.76
72587;BME280;60621;49.576;11.024;2022-12-08T03:27:24;97763.94;;;2.92;77.09
72587;BME280;60621;49.576;11.024;2022-12-08T03:28:27;97766.22;;;2.93;76.30
72587;BME280;60621;49.576;11.024;2022-12-08T03:29:29;97764.25;;;2.90;76.74
72587;BME280;60621;49.576;11.024;2022-12-08T03:30:35;97757.56;;;2.80;77.29
72587;BME280;60621;49.576;11.024;2022-12-08T03:31:43;97761.84;;;2.85;76.86
72587;BME280;60621;49.576;11.024;2022-12-08T03:32:56;97758.34;;;2.81;76.98
72587;BME280;60621;49.576;11.024;2022-12-08T03:34:04;97761.19;;;2.88;77.13
72587;BME280;60621;49.576;11.024;2022-12-08T03:35:15;97755.94;;;2.97;76.67
72587;BME280;60621;49.576;11.024;2022-12-08T03:36:18;97755.72;;;3.02;76.40
72587;BME280;60621;49.576;11.024;2022-12-08T03:37:20;97758.16;;;3.07;76.52
72587;BME280;60621;49.576;11.024;2022-12-08T03:38:22;97758.81;;;3.04;76.14
72587;BME280;60621;49.576;11.024;2022-12-08T03:39:23;97760.75;;;3.07;76.74
72587;BME280;60621;49.576;11.024;2022-12-08T03:40:25;97756.44;;;3.11;75.96
72587;BME280;60621;49.576;11.024;2022-12-08T03:41:26;97748.63;;;3.11;75.60
72587;BME280;60621;49.576;11.024;2022-12-08T03:42:28;97752.88;;;3.16;76.16
72587;BME280;60621;49.576;11.024;2022-12-08T03:43:29;97751.78;;;3.17;76.21
72587;BME280;60621;49.576;11.024;2022-12-08T03:44:31;97756.72;;;3.18;75.76
72587;BME280;60621;49.576;11.024;2022-12-08T03:45:32;97754.84;;;3.19;75.86
72587;BME280;60621;49.576;11.024;2022-12-08T03:46:34;97755.63;;;3.19;76.19
72587;BME280;60621;49.576;11.024;2022-12-08T03:47:35;97764.81;;;3.17;75.64
72587;BME280;60621;49.576;11.024;2022-12-08T03:48:37;97760.84;;;3.19;76.16
72587;BME280;60621;49.576;11.024;2022-12-08T03:49:39;97762.69;;;3.19;75.38
72587;BME280;60621;49.576;11.024;2022-12-08T03:50:41;97760.50;;;3.21;76.02
72587;BME280;60621;49.576;11.024;2022-12-08T03:51:42;97754.53;;;3.20;75.71
72587;BME280;60621;49.576;11.024;2022-12-08T03:52:44;97757.75;;;3.17;75.90
72587;BME280;60621;49.576;11.024;2022-12-08T03:53:46;97755.63;;;3.19;76.25
72587;BME280;60621;49.576;11.024;2022-12-08T03:54:48;97754.97;;;3.22;75.57
72587;BME280;60621;49.576;11.024;2022-12-08T03:55:51;97753.78;;;3.20;75.59
72587;BME280;60621;49.576;11.024;2022-12-08T03:56:53;97752.56;;;3.17;75.87
72587;BME280;60621;49.576;11.024;2022-12-08T03:57:54;97747.66;;;3.16;75.27
72587;BME280;60621;49.576;11.024;2022-12-08T03:58:57;97741.44;;;3.08;76.11
72587;BME280;60621;49.576;11.024;2022-12-08T03:59:58;97743.84;;;3.13;75.82
72587;BME280;60621;49.576;11.024;2022-12-08T04:01:00;97744.16;;;3.12;76.13
72587;BME280;60621;49.576;11.024;2022-12-08T04:02:01;97741.56;;;3.12;75.96
72587;BME280;60621;49.576;11.024;2022-12-08T04:03:03;97739.28;;;3.10;76.24
72587;BME280;60621;49.576;11.024;2022-12-08T04:04:06;97739.91;;;3.07;76.66
72587;BME280;60621;49.576;11.024;2022-12-08T04:05:08;97741.81;;;2.98;76.02
72587;BME280;60621;49.576;11.024;2022-12-08T04:06:09;97733.56;;;2.96;76.03
72587;BME280;60621;49.576;11.024;2022-12-08T04:07:11;97741.63;;;3.03;76.57
72587;BME280;60621;49.576;11.024;2022-12-08T04:08:12;97743.03;;;3.00;76.25
72587;BME280;60621;49.576;11.024;2022-12-08T04:09:14;97738.78;;;2.96;75.60
72587;BME280;60621;49.576;11.024;2022-12-08T04:10:16;97731.09;;;2.99;76.49
72587;BME280;60621;49.576;11.024;2022-12-08T04:11:18;97734.56;;;3.03;76.31
72587;BME280;60621;49.576;11.024;2022-12-08T04:12:19;97730.75;;;3.01;76.04
72587;BME280;60621;49.576;11.024;2022-12-08T04:13:21;97729.53;;;2.98;76.20
72587;BME280;60621;49.576;11.024;2022-12-08T04:14:23;97735.28;;;2.92;76.29
72587;BME280;60621;49.576;11.024;2022-12-08T04:15:24;97727.59;;;2.95;76.51
72587;BME280;60621;49.576;11.024;2022-12-08T04:16:26;97723.13;;;2.96;75.88
72587;BME280;60621;49.576;11.024;2022-12-08T04:17:28;97728.16;;;3.01;75.95
72587;BME280;60621;49.576;11.024;2022-12-08T04:18:30;97733.81;;;3.03;75.89
72587;BME280;60621;49.576;11.024;2022-12-08T04:19:32;97733.81;;;3.03;76.01
72587;BME280;60621;49.576;11.024;2022-12-08T04:20:37;97727.13;;;2.93;75.94
72587;BME280;60621;49.576;11.024;2022-12-08T04:21:39;97734.31;;;2.96;76.42
72587;BME280;60621;49.576;11.024;2022-12-08T04:22:41;97731.19;;;3.03;76.30
72587;BME280;60621;49.576;11.024;2022-12-08T04:23:43;97727.97;;;3.06;75.83
72587;BME280;60621;49.576;11.024;2022-12-08T04:24:45;97731.53;;;3.01;75.52
72587;BME280;60621;49.576;11.024;2022-12-08T04:25:47;97727.78;;;2.90;76.36
72587;BME280;60621;49.576;11.024;2022-12-08T04:26:49;97730.38;;;2.90;76.46
72587;BME280;60621;49.576;11.024;2022-12-08T04:27:51;97731.56;;;2.93;76.49
72587;BME280;60621;49.576;11.024;2022-12-08T04:28:52;97728.47;;;2.99;76.31
72587;BME280;60621;49.576;11.024;2022-12-08T04:29:54;97734.25;;;3.05;76.40
72587;BME280;60621;49.576;11.024;2022-12-08T04:30:55;97725.78;;;3.08;76.03
72587;BME280;60621;49.576;11.024;2022-12-08T04:31:57;97727.78;;;3.11;76.27
72587;BME280;60621;49.576;11.024;2022-12-08T04:32:59;97730.69;;;3.10;76.10
72587;BME280;60621;49.576;11.024;2022-12-08T04:34:00;97723.31;;;3.12;75.77
72587;BME280;60621;49.576;11.024;2022-12-08T04:35:02;97729.25;;;3.00;76.28
72587;BME280;60621;49.576;11.024;2022-12-08T04:36:04;97727.41;;;3.00;76.27
72587;BME280;60621;49.576;11.024;2022-12-08T04:37:06;97729.81;;;3.05;76.00
72587;BME280;60621;49.576;11.024;2022-12-08T04:38:07;97732.56;;;3.09;75.73
72587;BME280;60621;49.576;11.024;2022-12-08T04:39:09;97723.84;;;3.05;76.19
72587;BME280;60621;49.576;11.024;2022-12-08T04:40:11;97729.16;;;3.08;76.07
72587;BME280;60621;49.576;11.024;2022-12-08T04:41:13;97722.13;;;3.09;76.17
72587;BME280;60621;49.576;11.024;2022-12-08T04:42:15;97724.72;;;3.09;76.12
72587;BME280;60621;49.576;11.024;2022-12-08T04:43:16;97730.25;;;3.07;76.07
72587;BME280;60621;49.576;11.024;2022-12-08T04:44:18;97722.63;;;3.02;76.40
72587;BME280;60621;49.576;11.024;2022-12-08T04:45:19;97720.81;;;2.94;75.47
72587;BME280;60621;49.576;11.024;2022-12-08T04:46:21;97723.44;;;2.94;76.36
72587;BME280;60621;49.576;11.024;2022-12-08T04:47:22;97722.69;;;2.94;76.26
72587;BME280;60621;49.576;11.024;2022-12-08T04:48:24;97722.47;;;2.99;76.43
72587;BME280;60621;49.576;11.024;2022-12-08T04:49:25;97715.94;;;2.93;76.40
72587;BME280;60621;49.576;11.024;2022-12-08T04:50:27;97717.66;;;2.89;76.82
72587;BME280;60621;49.576;11.024;2022-12-08T04:51:29;97720.81;;;2.94;76.74
72587;BME280;60621;49.576;11.024;2022-12-08T04:52:30;97725.88;;;2.99;76.39
72587;BME280;60621;49.576;11.024;2022-12-08T04:53:32;97716.28;;;2.91;76.32
72587;BME280;60621;49.576;11.024;2022-12-08T04:54:34;97720.00;;;2.81;76.27
72587;BME280;60621;49.576;11.024;2022-12-08T04:55:40;97717.22;;;2.87;76.29
72587;BME280;60621;49.576;11.024;2022-12-08T04:56:42;97716.59;;;2.90;76.46
72587;BME280;60621;49.576;11.024;2022-12-08T04:57:44;97717.09;;;2.83;76.62
72587;BME280;60621;49.576;11.024;2022-12-08T04:58:45;97720.25;;;2.89;76.67
72587;BME280;60621;49.576;11.024;2022-12-08T04:59:47;97707.38;;;2.92;76.79
72587;BME280;60621;49.576;11.024;2022-12-08T05:00:48;97710.31;;;2.91;76.30
72587;BME280;60621;49.576;11.024;2022-12-08T05:01:50;97710.41;;;2.94;76.58
72587;BME280;60621;49.576;11.024;2022-12-08T05:02:52;97719.44;;;2.97;75.88
72587;BME280;60621;49.576;11.024;2022-12-08T05:03:55;97716.41;;;2.95;76.25
72587;BME280;60621;49.576;11.024;2022-12-08T05:04:57;97717.47;;;2.94;76.20
72587;BME280;60621;49.576;11.024;2022-12-08T05:05:59;97722.06;;;2.97;76.03
72587;BME280;60621;49.576;11.024;2022-12-08T05:07:01;97723.38;;;3.03;76.24
72587;BME280;60621;49.576;11.024;2022-12-08T05:08:03;97719.06;;;3.07;76.11
72587;BME280;60621;49.576;11.024;2022-12-08T05:09:05;97722.13;;;3.09;76.09
72587;BME280;60621;49.576;11.024;2022-12-08T05:10:07;97715.69;;;3.06;76.21
72587;BME280;60621;49.576;11.024;2022-12-08T05:11:10;97716.78;;;3.05;75.37
72587;BME280;60621;49.576;11.024;2022-12-08T05:12:11;97721.34;;;3.08;75.67
72587;BME280;60621;49.576;11.024;2022-12-08T05:13:13;97716.25;;;3.12;76.20
72587;BME280;60621;49.576;11.024;2022-12-08T05:14:16;97717.97;;;3.08;75.81
72587;BME280;60621;49.576;11.024;2022-12-08T05:15:18;97718.94;;;3.03;75.89
72587;BME280;60621;49.576;11.024;2022-12-08T05:16:20;97719.81;;;3.07;75.97
72587;BME280;60621;49.576;11.024;2022-12-08T05:17:21;97722.44;;;3.07;76.04
72587;BME280;60621;49.576;11.024;2022-12-08T05:18:23;97716.59;;;3.11;76.05
72587;BME280;60621;49.576;11.024;2022-12-08T05:19:25;97717.16;;;3.16;75.55
72587;BME280;60621;49.576;11.024;2022-12-08T05:20:26;97712.81;;;3.20;76.05
72587;BME280;60621;49.576;11.024;2022-12-08T05:21:28;97716.00;;;3.26;75.77
72587;BME280;60621;49.576;11.024;2022-12-08T05:22:30;97717.72;;;3.22;74.72
72587;BME280;60621;49.576;11.024;2022-12-08T05:23:32;97717.41;;;3.23;75.59
72587;BME280;60621;49.576;11.024;2022-12-08T05:24:33;97716.75;;;3.26;75.40
72587;BME280;60621;49.576;11.024;2022-12-08T05:25:35;97715.03;;;3.30;75.63
72587;BME280;60621;49.576;11.024;2022-12-08T05:26:36;97719.06;;;3.28;75.17
72587;BME280;60621;49.576;11.024;2022-12-08T05:27:38;97714.03;;;3.23;75.54
72587;BME280;60621;49.576;11.024;2022-12-08T05:28:39;97712.50;;;3.22;75.03
72587;BME280;60621;49.576;11.024;2022-12-08T05:29:43;97711.75;;;3.21;74.94
72587;BME280;60621;49.576;11.024;2022-12-08T05:30:44;97712.81;;;3.20;75.15
72587;BME280;60621;49.576;11.024;2022-12-08T05:31:46;97709.47;;;3.20;75.66
72587;BME280;60621;49.576;11.024;2022-12-08T05:32:48;97715.44;;;3.20;75.73
72587;BME280;60621;49.576;11.024;2022-12-08T05:33:50;97710.22;;;3.20;76.13
72587;BME280;60621;49.576;11.024;2022-12-08T05:34:52;97713.66;;;3.12;75.89
72587;BME280;60621;49.576;11.024;2022-12-08T05:35:53;97713.47;;;3.17;75.88
72587;BME280;60621;49.576;11.024;2022-12-08T05:36:55;97710.66;;;3.22;76.10
72587;BME280;60621;49.576;11.024;2022-12-08T05:37:56;97715.56;;;3.24;75.65
72587;BME280;60621;49.576;11.024;2022-12-08T05:38:58;97710.34;;;3.24;76.11
72587;BME280;60621;49.576;11.024;2022-12-08T05:40:00;97719.44;;;3.18;75.32
72587;BME280;60621;49.576;11.024;2022-12-08T05:41:02;97712.81;;;3.20;75.45
72587;BME280;60621;49.576;11.024;2022-12-08T05:42:04;97710.97;;;3.21;76.04
72587;BME280;60621;49.576;11.024;2022-12-08T05:43:06;97712.81;;;3.20;75.83
72587;BME280;60621;49.576;11.024;2022-12-08T05:44:07;97713.25;;;3.22;75.43
72587;BME280;60621;49.576;11.024;2022-12-08T05:45:09;97706.97;;;3.23;76.12
72587;BME280;60621;49.576;11.024;2022-12-08T05:46:11;97699.59;;;3.25;75.58
72587;BME280;60621;49.576;11.024;2022-12-08T05:47:13;97714.16;;;3.26;75.97
72587;BME280;60621;49.576;11.024;2022-12-08T05:48:15;97707.84;;;3.27;75.55
72587;BME280;60621;49.576;11.024;2022-12-08T05:49:17;97704.47;;;3.27;75.85
72587;BME280;60621;49.576;11.024;2022-12-08T05:50:18;97710.59;;;3.31;75.51
72587;BME280;60621;49.576;11.024;2022-12-08T05:51:22;97703.53;;;3.31;75.40
72587;BME280;60621;49.576;11.024;2022-12-08T05:52:24;97705.81;;;3.33;75.32
72587;BME280;60621;49.576;11.024;2022-12-08T05:53:26;97705.06;;;3.32;75.30
72587;BME280;60621;49.576;11.024;2022-12-08T05:54:27;97706.13;;;3.31;75.03
72587;BME280;60621;49.576;11.024;2022-12-08T05:55:29;97705.50;;;3.34;75.52
72587;BME280;60621;49.576;11.024;2022-12-08T05:56:30;97698.63;;;3.30;75.24
72587;BME280;60621;49.576;11.024;2022-12-08T05:57:32;97706.66;;;3.25;74.91
72587;BME280;60621;49.576;11.024;2022-12-08T05:58:34;97697.38;;;3.15;75.47